sensor_id;sensor_type;location;lat;lon;timestamp;P1;durP1;ratioP1;P2;durP2;ratioP2
66741;SDS011;53654;54.152;19.432;2022-08-19T00:01:47;10.40;;;8.70;;
66741;SDS011;53654;54.152;19.432;2022-08-19T00:04:21;10.00;;;8.90;;
66741;SDS011;53654;54.152;19.432;2022-08-19T00:06:52;10.50;;;8.70;;
66741;SDS011;53654;54.152;19.432;2022-08-19T00:09:22;9.60;;;8.70;;
66741;SDS011;53654;54.152;19.432;2022-08-19T00:11:51;9.50;;;8.60;;
66741;SDS011;53654;54.152;19.432;2022-08-19T00:14:21;9.10;;;8.30;;
66741;SDS011;53654;54.152;19.432;2022-08-19T00:16:51;10.30;;;9.20;;
66741;SDS011;53654;54.152;19.432;2022-08-19T00:19:22;8.60;;;7.90;;
66741;SDS011;53654;54.152;19.432;2022-08-19T00:21:51;9.10;;;7.90;;
66741;SDS011;53654;54.152;19.432;2022-08-19T00:24:20;10.20;;;8.10;;
66741;SDS011;53654;54.152;19.432;2022-08-19T00:26:48;9.00;;;8.10;;
66741;SDS011;53654;54.152;19.432;2022-08-19T00:29:18;9.50;;;8.30;;
66741;SDS011;53654;54.152;19.432;2022-08-19T00:31:48;8.70;;;7.80;;
66741;SDS011;53654;54.152;19.432;2022-08-19T00:34:17;9.40;;;8.40;;
66741;SDS011;53654;54.152;19.432;2022-08-19T00:36:45;10.00;;;8.80;;
66741;SDS011;53654;54.152;19.432;2022-08-19T00:39:15;9.30;;;8.30;;
66741;SDS011;53654;54.152;19.432;2022-08-19T00:41:44;9.00;;;8.00;;
66741;SDS011;53654;54.152;19.432;2022-08-19T00:44:20;9.70;;;8.80;;
66741;SDS011;53654;54.152;19.432;2022-08-19T00:46:54;9.60;;;8.80;;
66741;SDS011;53654;54.152;19.432;2022-08-19T00:49:47;10.10;;;9.00;;
66741;SDS011;53654;54.152;19.432;2022-08-19T00:52:21;11.80;;;9.20;;
66741;SDS011;53654;54.152;19.432;2022-08-19T00:54:54;12.40;;;9.00;;
66741;SDS011;53654;54.152;19.432;2022-08-19T00:57:33;9.40;;;8.60;;
66741;SDS011;53654;54.152;19.432;2022-08-19T01:00:07;9.90;;;8.90;;
66741;SDS011;53654;54.152;19.432;2022-08-19T01:02:40;9.80;;;8.70;;
66741;SDS011;53654;54.152;19.432;2022-08-19T01:05:11;8.80;;;8.10;;
66741;SDS011;53654;54.152;19.432;2022-08-19T01:07:50;9.50;;;8.50;;
66741;SDS011;53654;54.152;19.432;2022-08-19T01:10:20;9.20;;;8.40;;
66741;SDS011;53654;54.152;19.432;2022-08-19T01:12:52;9.90;;;8.90;;
66741;SDS011;53654;54.152;19.432;2022-08-19T01:15:23;9.70;;;8.80;;
66741;SDS011;53654;54.152;19.432;2022-08-19T01:17:58;10.00;;;9.10;;
66741;SDS011;53654;54.152;19.432;2022-08-19T01:20:29;10.20;;;9.10;;
66741;SDS011;53654;54.152;19.432;2022-08-19T01:22:58;11.30;;;10.20;;
66741;SDS011;53654;54.152;19.432;2022-08-19T01:25:35;9.90;;;9.00;;
66741;SDS011;53654;54.152;19.432;2022-08-19T01:28:14;10.30;;;9.40;;
66741;SDS011;53654;54.152;19.432;2022-08-19T01:30:44;12.20;;;10.30;;
66741;SDS011;53654;54.152;19.432;2022-08-19T01:33:17;10.90;;;9.90;;
66741;SDS011;53654;54.152;19.432;2022-08-19T01:35:47;10.80;;;9.70;;
66741;SDS011;53654;54.152;19.432;2022-08-19T01:38:20;10.90;;;9.80;;
66741;SDS011;53654;54.152;19.432;2022-08-19T01:40:51;11.50;;;10.40;;
66741;SDS011;53654;54.152;19.432;2022-08-19T01:43:20;12.10;;;10.90;;
66741;SDS011;53654;54.152;19.432;2022-08-19T01:45:48;12.00;;;10.90;;
66741;SDS011;53654;54.152;19.432;2022-08-19T01:48:16;11.10;;;10.20;;
66741;SDS011;53654;54.152;19.432;2022-08-19T01:50:44;11.50;;;10.40;;
66741;SDS011;53654;54.152;19.432;2022-08-19T01:53:12;11.50;;;10.40;;
66741;SDS011;53654;54.152;19.432;2022-08-19T01:55:42;10.70;;;9.70;;
66741;SDS011;53654;54.152;19.432;2022-08-19T01:58:13;10.60;;;9.60;;
66741;SDS011;53654;54.152;19.432;2022-08-19T02:00:46;10.50;;;9.40;;
66741;SDS011;53654;54.152;19.432;2022-08-19T02:03:14;11.40;;;9.90;;
66741;SDS011;53654;54.152;19.432;2022-08-19T02:05:43;11.50;;;10.50;;
66741;SDS011;53654;54.152;19.432;2022-08-19T02:08:13;11.30;;;10.30;;
66741;SDS011;53654;54.152;19.432;2022-08-19T02:10:42;12.10;;;10.90;;
66741;SDS011;53654;54.152;19.432;2022-08-19T02:13:11;12.70;;;11.50;;
66741;SDS011;53654;54.152;19.432;2022-08-19T02:15:41;12.40;;;11.30;;
66741;SDS011;53654;54.152;19.432;2022-08-19T02:18:09;12.70;;;11.50;;
66741;SDS011;53654;54.152;19.432;2022-08-19T02:20:38;12.80;;;11.50;;
66741;SDS011;53654;54.152;19.432;2022-08-19T02:23:07;12.50;;;11.40;;
66741;SDS011;53654;54.152;19.432;2022-08-19T02:25:41;12.00;;;10.90;;
66741;SDS011;53654;54.152;19.432;2022-08-19T02:28:10;12.20;;;11.10;;
66741;SDS011;53654;54.152;19.432;2022-08-19T02:30:45;12.40;;;11.10;;
66741;SDS011;53654;54.152;19.432;2022-08-19T02:33:15;12.20;;;11.20;;
66741;SDS011;53654;54.152;19.432;2022-08-19T02:35:44;12.00;;;10.50;;
66741;SDS011;53654;54.152;19.432;2022-08-19T02:38:14;11.10;;;10.20;;
66741;SDS011;53654;54.152;19.432;2022-08-19T02:40:56;11.80;;;10.80;;
66741;SDS011;53654;54.152;19.432;2022-08-19T02:43:28;12.00;;;10.80;;
66741;SDS011;53654;54.152;19.432;2022-08-19T02:46:01;11.80;;;10.80;;
66741;SDS011;53654;54.152;19.432;2022-08-19T02:48:30;12.00;;;10.90;;
66741;SDS011;53654;54.152;19.432;2022-08-19T02:51:00;11.90;;;10.60;;
66741;SDS011;53654;54.152;19.432;2022-08-19T02:53:28;11.60;;;10.50;;
66741;SDS011;53654;54.152;19.432;2022-08-19T02:55:57;12.20;;;11.10;;
66741;SDS011;53654;54.152;19.432;2022-08-19T02:58:25;12.80;;;11.60;;
66741;SDS011;53654;54.152;19.432;2022-08-19T03:00:55;11.50;;;10.30;;
66741;SDS011;53654;54.152;19.432;2022-08-19T03:03:24;12.70;;;10.90;;
66741;SDS011;53654;54.152;19.432;2022-08-19T03:06:02;12.60;;;11.40;;
66741;SDS011;53654;54.152;19.432;2022-08-19T03:08:44;11.40;;;10.40;;
66741;SDS011;53654;54.152;19.432;2022-08-19T03:11:19;12.40;;;11.30;;
66741;SDS011;53654;54.152;19.432;2022-08-19T03:13:50;12.20;;;11.10;;
66741;SDS011;53654;54.152;19.432;2022-08-19T03:16:19;12.10;;;10.90;;
66741;SDS011;53654;54.152;19.432;2022-08-19T03:18:50;11.50;;;10.30;;
66741;SDS011;53654;54.152;19.432;2022-08-19T03:21:22;11.90;;;10.80;;
66741;SDS011;53654;54.152;19.432;2022-08-19T03:23:56;11.20;;;10.30;;
66741;SDS011;53654;54.152;19.432;2022-08-19T03:26:26;12.10;;;10.80;;
66741;SDS011;53654;54.152;19.432;2022-08-19T03:28:54;12.20;;;11.00;;
66741;SDS011;53654;54.152;19.432;2022-08-19T03:31:25;11.70;;;10.80;;
66741;SDS011;53654;54.152;19.432;2022-08-19T03:34:16;11.30;;;10.20;;
66741;SDS011;53654;54.152;19.432;2022-08-19T03:36:47;10.90;;;9.90;;
66741;SDS011;53654;54.152;19.432;2022-08-19T03:39:16;11.80;;;10.60;;
66741;SDS011;53654;54.152;19.432;2022-08-19T03:41:45;11.50;;;10.50;;
66741;SDS011;53654;54.152;19.432;2022-08-19T03:44:19;12.40;;;10.80;;
66741;SDS011;53654;54.152;19.432;2022-08-19T03:46:50;11.60;;;10.40;;
66741;SDS011;53654;54.152;19.432;2022-08-19T03:49:22;11.30;;;10.30;;
66741;SDS011;53654;54.152;19.432;2022-08-19T03:51:55;11.30;;;10.20;;
66741;SDS011;53654;54.152;19.432;2022-08-19T03:54:27;12.00;;;10.80;;
66741;SDS011;53654;54.152;19.432;2022-08-19T03:56:56;11.20;;;10.20;;
66741;SDS011;53654;54.152;19.432;2022-08-19T03:59:26;11.20;;;10.30;;
66741;SDS011;53654;54.152;19.432;2022-08-19T04:01:57;10.60;;;9.50;;
66741;SDS011;53654;54.152;19.432;2022-08-19T04:04:27;11.20;;;9.50;;
66741;SDS011;53654;54.152;19.432;2022-08-19T04:06:58;11.40;;;10.00;;
66741;SDS011;53654;54.152;19.432;2022-08-19T04:09:26;10.90;;;9.90;;
66741;SDS011;53654;54.152;19.432;2022-08-19T04:11:55;11.30;;;10.30;;
66741;SDS011;53654;54.152;19.432;2022-08-19T04:14:27;11.60;;;10.40;;
66741;SDS011;53654;54.152;19.432;2022-08-19T04:16:58;11.30;;;10.10;;
66741;SDS011;53654;54.152;19.432;2022-08-19T04:19:29;10.70;;;9.70;;
66741;SDS011;53654;54.152;19.432;2022-08-19T04:21:57;11.00;;;9.50;;
66741;SDS011;53654;54.152;19.432;2022-08-19T04:24:26;12.20;;;9.40;;
66741;SDS011;53654;54.152;19.432;2022-08-19T04:26:55;12.10;;;10.20;;
66741;SDS011;53654;54.152;19.432;2022-08-19T04:29:24;11.30;;;10.30;;
66741;SDS011;53654;54.152;19.432;2022-08-19T04:31:53;11.30;;;9.70;;
66741;SDS011;53654;54.152;19.432;2022-08-19T04:34:25;12.20;;;10.30;;
66741;SDS011;53654;54.152;19.432;2022-08-19T04:36:56;10.80;;;9.30;;
66741;SDS011;53654;54.152;19.432;2022-08-19T04:39:27;10.60;;;9.60;;
66741;SDS011;53654;54.152;19.432;2022-08-19T04:42:17;11.20;;;9.50;;
66741;SDS011;53654;54.152;19.432;2022-08-19T04:45:08;10.30;;;9.00;;
66741;SDS011;53654;54.152;19.432;2022-08-19T04:47:44;11.50;;;10.20;;
66741;SDS011;53654;54.152;19.432;2022-08-19T04:50:25;10.70;;;9.70;;
66741;SDS011;53654;54.152;19.432;2022-08-19T04:52:54;10.00;;;9.20;;
66741;SDS011;53654;54.152;19.432;2022-08-19T04:55:24;9.90;;;8.70;;
66741;SDS011;53654;54.152;19.432;2022-08-19T04:57:55;9.60;;;8.60;;
66741;SDS011;53654;54.152;19.432;2022-08-19T05:00:23;9.10;;;8.20;;
66741;SDS011;53654;54.152;19.432;2022-08-19T05:02:51;9.00;;;8.20;;
66741;SDS011;53654;54.152;19.432;2022-08-19T05:05:19;8.70;;;7.80;;
66741;SDS011;53654;54.152;19.432;2022-08-19T05:07:48;9.70;;;8.10;;
66741;SDS011;53654;54.152;19.432;2022-08-19T05:10:16;8.90;;;8.10;;
66741;SDS011;53654;54.152;19.432;2022-08-19T05:12:45;8.60;;;7.50;;
66741;SDS011;53654;54.152;19.432;2022-08-19T05:15:13;9.60;;;8.00;;
66741;SDS011;53654;54.152;19.432;2022-08-19T05:17:41;11.50;;;8.10;;
66741;SDS011;53654;54.152;19.432;2022-08-19T05:20:29;8.30;;;7.30;;
66741;SDS011;53654;54.152;19.432;2022-08-19T05:23:16;8.00;;;7.40;;
66741;SDS011;53654;54.152;19.432;2022-08-19T05:25:50;10.20;;;7.70;;
66741;SDS011;53654;54.152;19.432;2022-08-19T05:28:19;8.20;;;7.10;;
66741;SDS011;53654;54.152;19.432;2022-08-19T05:30:48;9.90;;;7.80;;
66741;SDS011;53654;54.152;19.432;2022-08-19T05:33:18;11.00;;;7.20;;
66741;SDS011;53654;54.152;19.432;2022-08-19T05:35:47;10.10;;;7.80;;
66741;SDS011;53654;54.152;19.432;2022-08-19T05:38:17;10.20;;;7.60;;
66741;SDS011;53654;54.152;19.432;2022-08-19T05:40:45;9.70;;;7.30;;
66741;SDS011;53654;54.152;19.432;2022-08-19T05:43:17;10.20;;;7.10;;
66741;SDS011;53654;54.152;19.432;2022-08-19T05:45:45;9.90;;;7.60;;
66741;SDS011;53654;54.152;19.432;2022-08-19T05:48:13;9.30;;;7.50;;
66741;SDS011;53654;54.152;19.432;2022-08-19T05:50:42;8.20;;;7.20;;
66741;SDS011;53654;54.152;19.432;2022-08-19T05:53:10;8.10;;;7.40;;
66741;SDS011;53654;54.152;19.432;2022-08-19T05:55:38;9.60;;;7.20;;
66741;SDS011;53654;54.152;19.432;2022-08-19T05:58:06;8.00;;;7.20;;
66741;SDS011;53654;54.152;19.432;2022-08-19T06:00:35;11.40;;;7.40;;
66741;SDS011;53654;54.152;19.432;2022-08-19T06:03:04;10.30;;;7.40;;
66741;SDS011;53654;54.152;19.432;2022-08-19T06:05:40;8.70;;;7.80;;
66741;SDS011;53654;54.152;19.432;2022-08-19T06:08:18;8.50;;;7.80;;
66741;SDS011;53654;54.152;19.432;2022-08-19T06:11:20;10.70;;;7.50;;
66741;SDS011;53654;54.152;19.432;2022-08-19T06:13:53;10.80;;;7.50;;
66741;SDS011;53654;54.152;19.432;2022-08-19T06:16:27;10.40;;;7.60;;
66741;SDS011;53654;54.152;19.432;2022-08-19T06:18:56;9.80;;;8.10;;
66741;SDS011;53654;54.152;19.432;2022-08-19T06:21:28;10.10;;;8.30;;
66741;SDS011;53654;54.152;19.432;2022-08-19T06:23:58;9.20;;;8.10;;
66741;SDS011;53654;54.152;19.432;2022-08-19T06:26:26;10.40;;;8.00;;
66741;SDS011;53654;54.152;19.432;2022-08-19T06:28:55;9.30;;;8.10;;
66741;SDS011;53654;54.152;19.432;2022-08-19T06:31:24;8.80;;;8.00;;
66741;SDS011;53654;54.152;19.432;2022-08-19T06:33:54;9.70;;;8.30;;
66741;SDS011;53654;54.152;19.432;2022-08-19T06:36:27;11.20;;;8.30;;
66741;SDS011;53654;54.152;19.432;2022-08-19T06:38:58;12.20;;;8.10;;
66741;SDS011;53654;54.152;19.432;2022-08-19T06:41:27;10.30;;;7.60;;
66741;SDS011;53654;54.152;19.432;2022-08-19T06:43:56;9.90;;;8.80;;
66741;SDS011;53654;54.152;19.432;2022-08-19T06:46:25;8.90;;;8.10;;
66741;SDS011;53654;54.152;19.432;2022-08-19T06:48:56;9.10;;;8.30;;
66741;SDS011;53654;54.152;19.432;2022-08-19T06:51:25;9.20;;;8.40;;
66741;SDS011;53654;54.152;19.432;2022-08-19T06:53:58;8.70;;;7.60;;
66741;SDS011;53654;54.152;19.432;2022-08-19T06:56:28;9.70;;;8.90;;
66741;SDS011;53654;54.152;19.432;2022-08-19T06:59:03;12.30;;;10.90;;
66741;SDS011;53654;54.152;19.432;2022-08-19T07:01:36;12.80;;;10.90;;
66741;SDS011;53654;54.152;19.432;2022-08-19T07:04:06;9.20;;;8.40;;
66741;SDS011;53654;54.152;19.432;2022-08-19T07:06:38;14.00;;;8.80;;
66741;SDS011;53654;54.152;19.432;2022-08-19T07:09:12;9.70;;;7.60;;
66741;SDS011;53654;54.152;19.432;2022-08-19T07:11:46;13.20;;;7.90;;
66741;SDS011;53654;54.152;19.432;2022-08-19T07:14:17;9.80;;;7.50;;
66741;SDS011;53654;54.152;19.432;2022-08-19T07:16:48;9.00;;;8.10;;
66741;SDS011;53654;54.152;19.432;2022-08-19T07:19:18;13.40;;;8.00;;
66741;SDS011;53654;54.152;19.432;2022-08-19T07:21:47;13.30;;;8.20;;
66741;SDS011;53654;54.152;19.432;2022-08-19T07:24:21;8.60;;;7.80;;
66741;SDS011;53654;54.152;19.432;2022-08-19T07:26:52;9.90;;;8.20;;
66741;SDS011;53654;54.152;19.432;2022-08-19T07:29:24;11.30;;;8.20;;
66741;SDS011;53654;54.152;19.432;2022-08-19T07:31:55;9.70;;;7.60;;
66741;SDS011;53654;54.152;19.432;2022-08-19T07:34:27;9.40;;;8.40;;
66741;SDS011;53654;54.152;19.432;2022-08-19T07:36:57;10.70;;;8.20;;
66741;SDS011;53654;54.152;19.432;2022-08-19T07:39:26;9.50;;;8.30;;
66741;SDS011;53654;54.152;19.432;2022-08-19T07:41:57;10.10;;;8.30;;
66741;SDS011;53654;54.152;19.432;2022-08-19T07:44:27;10.50;;;7.80;;
66741;SDS011;53654;54.152;19.432;2022-08-19T07:46:56;10.30;;;8.20;;
66741;SDS011;53654;54.152;19.432;2022-08-19T07:49:24;8.70;;;7.90;;
66741;SDS011;53654;54.152;19.432;2022-08-19T07:51:57;9.30;;;8.30;;
66741;SDS011;53654;54.152;19.432;2022-08-19T07:54:29;8.70;;;7.90;;
66741;SDS011;53654;54.152;19.432;2022-08-19T07:57:02;10.90;;;8.10;;
66741;SDS011;53654;54.152;19.432;2022-08-19T07:59:31;9.40;;;8.10;;
66741;SDS011;53654;54.152;19.432;2022-08-19T08:01:59;8.30;;;7.50;;
66741;SDS011;53654;54.152;19.432;2022-08-19T08:04:28;10.20;;;8.20;;
66741;SDS011;53654;54.152;19.432;2022-08-19T08:07:16;10.90;;;7.50;;
66741;SDS011;53654;54.152;19.432;2022-08-19T08:10:04;10.10;;;7.90;;
66741;SDS011;53654;54.152;19.432;2022-08-19T08:12:46;8.70;;;7.30;;
66741;SDS011;53654;54.152;19.432;2022-08-19T08:15:35;8.60;;;7.80;;
66741;SDS011;53654;54.152;19.432;2022-08-19T08:18:10;10.80;;;7.20;;
66741;SDS011;53654;54.152;19.432;2022-08-19T08:20:41;13.10;;;7.10;;
66741;SDS011;53654;54.152;19.432;2022-08-19T08:23:09;10.90;;;7.80;;
66741;SDS011;53654;54.152;19.432;2022-08-19T08:25:54;13.60;;;7.80;;
66741;SDS011;53654;54.152;19.432;2022-08-19T08:28:25;14.30;;;7.70;;
66741;SDS011;53654;54.152;19.432;2022-08-19T08:30:56;10.90;;;7.10;;
66741;SDS011;53654;54.152;19.432;2022-08-19T08:33:26;8.00;;;7.00;;
66741;SDS011;53654;54.152;19.432;2022-08-19T08:36:02;9.10;;;7.10;;
66741;SDS011;53654;54.152;19.432;2022-08-19T08:38:32;8.70;;;7.30;;
66741;SDS011;53654;54.152;19.432;2022-08-19T08:41:16;8.80;;;7.40;;
66741;SDS011;53654;54.152;19.432;2022-08-19T08:43:55;8.00;;;7.20;;
66741;SDS011;53654;54.152;19.432;2022-08-19T08:46:35;7.20;;;6.50;;
66741;SDS011;53654;54.152;19.432;2022-08-19T08:52:02;9.50;;;7.40;;
66741;SDS011;53654;54.152;19.432;2022-08-19T08:54:59;9.50;;;7.50;;
66741;SDS011;53654;54.152;19.432;2022-08-19T09:00:14;9.20;;;6.90;;
66741;SDS011;53654;54.152;19.432;2022-08-19T09:02:45;11.00;;;7.80;;
66741;SDS011;53654;54.152;19.432;2022-08-19T09:05:18;8.30;;;7.40;;
66741;SDS011;53654;54.152;19.432;2022-08-19T09:10:59;9.60;;;6.90;;
66741;SDS011;53654;54.152;19.432;2022-08-19T09:13:41;8.10;;;7.00;;
66741;SDS011;53654;54.152;19.432;2022-08-19T09:16:17;9.60;;;7.60;;
66741;SDS011;53654;54.152;19.432;2022-08-19T09:18:56;11.60;;;7.80;;
66741;SDS011;53654;54.152;19.432;2022-08-19T09:21:29;7.10;;;6.40;;
66741;SDS011;53654;54.152;19.432;2022-08-19T09:24:01;12.90;;;8.30;;
66741;SDS011;53654;54.152;19.432;2022-08-19T09:26:31;10.50;;;8.00;;
66741;SDS011;53654;54.152;19.432;2022-08-19T09:29:20;9.90;;;7.90;;
66741;SDS011;53654;54.152;19.432;2022-08-19T09:31:49;8.00;;;7.30;;
66741;SDS011;53654;54.152;19.432;2022-08-19T09:34:17;7.90;;;7.10;;
66741;SDS011;53654;54.152;19.432;2022-08-19T09:36:49;10.20;;;7.60;;
66741;SDS011;53654;54.152;19.432;2022-08-19T09:39:21;8.80;;;7.80;;
66741;SDS011;53654;54.152;19.432;2022-08-19T09:41:51;12.00;;;7.70;;
66741;SDS011;53654;54.152;19.432;2022-08-19T09:44:20;9.70;;;8.10;;
66741;SDS011;53654;54.152;19.432;2022-08-19T09:46:48;7.90;;;7.10;;
66741;SDS011;53654;54.152;19.432;2022-08-19T09:49:19;8.70;;;7.20;;
66741;SDS011;53654;54.152;19.432;2022-08-19T09:51:51;8.70;;;7.80;;
66741;SDS011;53654;54.152;19.432;2022-08-19T09:54:23;13.10;;;7.90;;
66741;SDS011;53654;54.152;19.432;2022-08-19T09:56:53;10.70;;;8.00;;
66741;SDS011;53654;54.152;19.432;2022-08-19T09:59:22;9.30;;;7.90;;
66741;SDS011;53654;54.152;19.432;2022-08-19T10:01:50;10.40;;;7.90;;
66741;SDS011;53654;54.152;19.432;2022-08-19T10:04:20;9.70;;;7.00;;
66741;SDS011;53654;54.152;19.432;2022-08-19T10:06:51;8.30;;;7.30;;
66741;SDS011;53654;54.152;19.432;2022-08-19T10:09:24;8.80;;;7.80;;
66741;SDS011;53654;54.152;19.432;2022-08-19T10:12:03;8.70;;;7.80;;
66741;SDS011;53654;54.152;19.432;2022-08-19T10:14:33;9.20;;;7.80;;
66741;SDS011;53654;54.152;19.432;2022-08-19T10:17:02;9.10;;;7.10;;
66741;SDS011;53654;54.152;19.432;2022-08-19T10:19:44;8.20;;;7.40;;
66741;SDS011;53654;54.152;19.432;2022-08-19T10:22:22;8.80;;;7.10;;
66741;SDS011;53654;54.152;19.432;2022-08-19T10:24:52;7.40;;;6.60;;
66741;SDS011;53654;54.152;19.432;2022-08-19T10:27:21;8.30;;;7.00;;
66741;SDS011;53654;54.152;19.432;2022-08-19T10:29:49;9.40;;;7.30;;
66741;SDS011;53654;54.152;19.432;2022-08-19T10:32:18;8.70;;;7.60;;
66741;SDS011;53654;54.152;19.432;2022-08-19T10:35:01;8.50;;;7.40;;
66741;SDS011;53654;54.152;19.432;2022-08-19T10:37:32;8.80;;;7.40;;
66741;SDS011;53654;54.152;19.432;2022-08-19T10:40:02;8.10;;;7.20;;
66741;SDS011;53654;54.152;19.432;2022-08-19T10:42:34;10.70;;;7.40;;
66741;SDS011;53654;54.152;19.432;2022-08-19T10:45:03;12.40;;;7.10;;
66741;SDS011;53654;54.152;19.432;2022-08-19T10:47:33;8.40;;;7.60;;
66741;SDS011;53654;54.152;19.432;2022-08-19T10:50:02;10.90;;;7.30;;
66741;SDS011;53654;54.152;19.432;2022-08-19T10:52:55;11.40;;;7.00;;
66741;SDS011;53654;54.152;19.432;2022-08-19T10:55:23;9.20;;;7.30;;
66741;SDS011;53654;54.152;19.432;2022-08-19T10:58:14;8.30;;;7.50;;
66741;SDS011;53654;54.152;19.432;2022-08-19T11:00:50;7.90;;;7.00;;
66741;SDS011;53654;54.152;19.432;2022-08-19T11:03:21;9.10;;;7.50;;
66741;SDS011;53654;54.152;19.432;2022-08-19T11:06:02;8.70;;;7.70;;
66741;SDS011;53654;54.152;19.432;2022-08-19T11:08:34;8.20;;;7.30;;
66741;SDS011;53654;54.152;19.432;2022-08-19T11:11:05;10.60;;;7.80;;
66741;SDS011;53654;54.152;19.432;2022-08-19T11:13:35;8.40;;;7.50;;
66741;SDS011;53654;54.152;19.432;2022-08-19T11:16:07;8.30;;;7.00;;
66741;SDS011;53654;54.152;19.432;2022-08-19T11:18:43;7.70;;;6.90;;
66741;SDS011;53654;54.152;19.432;2022-08-19T11:23:45;10.00;;;7.00;;
66741;SDS011;53654;54.152;19.432;2022-08-19T11:26:15;7.80;;;7.10;;
66741;SDS011;53654;54.152;19.432;2022-08-19T11:28:44;9.20;;;7.00;;
66741;SDS011;53654;54.152;19.432;2022-08-19T11:31:15;9.90;;;7.20;;
66741;SDS011;53654;54.152;19.432;2022-08-19T11:33:45;8.70;;;6.40;;
66741;SDS011;53654;54.152;19.432;2022-08-19T11:36:14;10.10;;;7.10;;
66741;SDS011;53654;54.152;19.432;2022-08-19T11:38:44;10.70;;;7.00;;
66741;SDS011;53654;54.152;19.432;2022-08-19T11:41:12;7.50;;;6.70;;
66741;SDS011;53654;54.152;19.432;2022-08-19T11:43:40;7.40;;;6.70;;
66741;SDS011;53654;54.152;19.432;2022-08-19T11:46:10;8.90;;;6.20;;
66741;SDS011;53654;54.152;19.432;2022-08-19T11:48:40;10.70;;;6.50;;
66741;SDS011;53654;54.152;19.432;2022-08-19T11:51:10;7.30;;;6.10;;
66741;SDS011;53654;54.152;19.432;2022-08-19T11:53:42;8.00;;;6.10;;
66741;SDS011;53654;54.152;19.432;2022-08-19T11:56:10;10.10;;;6.50;;
66741;SDS011;53654;54.152;19.432;2022-08-19T11:58:39;8.80;;;5.90;;
66741;SDS011;53654;54.152;19.432;2022-08-19T12:01:10;9.10;;;6.60;;
66741;SDS011;53654;54.152;19.432;2022-08-19T12:03:39;11.90;;;6.30;;
66741;SDS011;53654;54.152;19.432;2022-08-19T12:06:09;10.50;;;6.00;;
66741;SDS011;53654;54.152;19.432;2022-08-19T12:08:41;8.50;;;5.70;;
66741;SDS011;53654;54.152;19.432;2022-08-19T12:11:11;7.00;;;5.90;;
66741;SDS011;53654;54.152;19.432;2022-08-19T12:13:41;6.70;;;5.80;;
66741;SDS011;53654;54.152;19.432;2022-08-19T12:16:14;6.20;;;5.60;;
66741;SDS011;53654;54.152;19.432;2022-08-19T12:18:45;9.00;;;5.50;;
66741;SDS011;53654;54.152;19.432;2022-08-19T12:21:14;9.80;;;6.10;;
66741;SDS011;53654;54.152;19.432;2022-08-19T12:23:44;7.80;;;6.20;;
66741;SDS011;53654;54.152;19.432;2022-08-19T12:26:13;10.60;;;5.90;;
66741;SDS011;53654;54.152;19.432;2022-08-19T12:28:41;8.70;;;5.60;;
66741;SDS011;53654;54.152;19.432;2022-08-19T12:31:09;6.00;;;5.20;;
66741;SDS011;53654;54.152;19.432;2022-08-19T12:33:40;7.70;;;5.10;;
66741;SDS011;53654;54.152;19.432;2022-08-19T12:36:10;10.00;;;5.20;;
66741;SDS011;53654;54.152;19.432;2022-08-19T12:38:39;8.10;;;5.50;;
66741;SDS011;53654;54.152;19.432;2022-08-19T12:41:09;9.00;;;5.50;;
66741;SDS011;53654;54.152;19.432;2022-08-19T12:43:39;10.20;;;5.50;;
66741;SDS011;53654;54.152;19.432;2022-08-19T12:46:09;11.10;;;5.00;;
66741;SDS011;53654;54.152;19.432;2022-08-19T12:48:39;9.10;;;5.90;;
66741;SDS011;53654;54.152;19.432;2022-08-19T12:51:16;10.30;;;5.70;;
66741;SDS011;53654;54.152;19.432;2022-08-19T12:53:46;8.60;;;5.80;;
66741;SDS011;53654;54.152;19.432;2022-08-19T12:56:15;8.50;;;5.80;;
66741;SDS011;53654;54.152;19.432;2022-08-19T12:58:49;9.40;;;5.60;;
66741;SDS011;53654;54.152;19.432;2022-08-19T13:01:19;7.80;;;5.50;;
66741;SDS011;53654;54.152;19.432;2022-08-19T13:03:50;9.40;;;5.70;;
66741;SDS011;53654;54.152;19.432;2022-08-19T13:06:21;8.40;;;6.20;;
66741;SDS011;53654;54.152;19.432;2022-08-19T13:08:49;6.50;;;5.80;;
66741;SDS011;53654;54.152;19.432;2022-08-19T13:11:19;9.90;;;5.60;;
66741;SDS011;53654;54.152;19.432;2022-08-19T13:13:48;7.00;;;5.60;;
66741;SDS011;53654;54.152;19.432;2022-08-19T13:16:19;10.50;;;5.70;;
66741;SDS011;53654;54.152;19.432;2022-08-19T13:18:47;10.90;;;6.30;;
66741;SDS011;53654;54.152;19.432;2022-08-19T13:21:17;8.20;;;5.20;;
66741;SDS011;53654;54.152;19.432;2022-08-19T13:23:49;9.80;;;5.50;;
66741;SDS011;53654;54.152;19.432;2022-08-19T13:26:18;10.20;;;5.70;;
66741;SDS011;53654;54.152;19.432;2022-08-19T13:28:47;9.30;;;5.30;;
66741;SDS011;53654;54.152;19.432;2022-08-19T13:31:34;10.30;;;5.30;;
66741;SDS011;53654;54.152;19.432;2022-08-19T13:34:28;5.60;;;5.10;;
66741;SDS011;53654;54.152;19.432;2022-08-19T13:37:01;7.20;;;5.20;;
66741;SDS011;53654;54.152;19.432;2022-08-19T13:39:32;8.60;;;5.50;;
66741;SDS011;53654;54.152;19.432;2022-08-19T13:42:01;9.80;;;5.30;;
66741;SDS011;53654;54.152;19.432;2022-08-19T13:44:31;8.30;;;5.20;;
66741;SDS011;53654;54.152;19.432;2022-08-19T13:47:00;9.70;;;5.80;;
66741;SDS011;53654;54.152;19.432;2022-08-19T13:49:34;10.70;;;5.50;;
66741;SDS011;53654;54.152;19.432;2022-08-19T13:52:04;8.80;;;5.30;;
66741;SDS011;53654;54.152;19.432;2022-08-19T13:54:33;7.20;;;5.20;;
66741;SDS011;53654;54.152;19.432;2022-08-19T13:57:01;7.70;;;4.80;;
66741;SDS011;53654;54.152;19.432;2022-08-19T13:59:29;5.80;;;5.20;;
66741;SDS011;53654;54.152;19.432;2022-08-19T14:01:58;6.80;;;5.30;;
66741;SDS011;53654;54.152;19.432;2022-08-19T14:04:27;9.80;;;5.20;;
66741;SDS011;53654;54.152;19.432;2022-08-19T14:06:56;8.30;;;5.00;;
66741;SDS011;53654;54.152;19.432;2022-08-19T14:09:24;9.30;;;5.80;;
66741;SDS011;53654;54.152;19.432;2022-08-19T14:11:52;9.40;;;5.50;;
66741;SDS011;53654;54.152;19.432;2022-08-19T14:14:20;6.40;;;5.80;;
66741;SDS011;53654;54.152;19.432;2022-08-19T14:16:49;7.00;;;5.80;;
66741;SDS011;53654;54.152;19.432;2022-08-19T14:19:17;8.30;;;5.80;;
66741;SDS011;53654;54.152;19.432;2022-08-19T14:21:45;8.40;;;5.60;;
66741;SDS011;53654;54.152;19.432;2022-08-19T14:24:13;9.50;;;5.90;;
66741;SDS011;53654;54.152;19.432;2022-08-19T14:26:42;9.00;;;5.50;;
66741;SDS011;53654;54.152;19.432;2022-08-19T14:29:10;7.20;;;5.40;;
66741;SDS011;53654;54.152;19.432;2022-08-19T14:31:38;8.10;;;5.50;;
66741;SDS011;53654;54.152;19.432;2022-08-19T14:34:07;7.90;;;5.90;;
66741;SDS011;53654;54.152;19.432;2022-08-19T14:36:35;9.20;;;6.20;;
66741;SDS011;53654;54.152;19.432;2022-08-19T14:39:05;7.00;;;5.90;;
66741;SDS011;53654;54.152;19.432;2022-08-19T14:41:34;9.20;;;5.80;;
66741;SDS011;53654;54.152;19.432;2022-08-19T14:44:02;9.60;;;5.20;;
66741;SDS011;53654;54.152;19.432;2022-08-19T14:46:30;7.60;;;5.80;;
66741;SDS011;53654;54.152;19.432;2022-08-19T14:48:58;12.00;;;6.30;;
66741;SDS011;53654;54.152;19.432;2022-08-19T14:51:27;9.20;;;5.50;;
66741;SDS011;53654;54.152;19.432;2022-08-19T14:53:55;7.10;;;6.00;;
66741;SDS011;53654;54.152;19.432;2022-08-19T14:56:25;8.40;;;6.00;;
66741;SDS011;53654;54.152;19.432;2022-08-19T14:58:55;10.60;;;6.20;;
66741;SDS011;53654;54.152;19.432;2022-08-19T15:01:26;7.30;;;5.80;;
66741;SDS011;53654;54.152;19.432;2022-08-19T15:03:55;6.20;;;5.60;;